createdAt,value
2023-02-25T00:02:59.239Z,4.26
2023-02-25T00:07:55.545Z,4.30
2023-02-25T00:12:46.663Z,4.53
2023-02-25T00:17:41.579Z,4.49
2023-02-25T00:22:32.314Z,4.53
2023-02-25T00:27:36.075Z,4.52
2023-02-25T00:32:39.155Z,4.46
2023-02-25T00:37:30.867Z,4.57
2023-02-25T00:42:21.429Z,4.49
2023-02-25T00:47:15.657Z,4.39
2023-02-25T00:52:15.409Z,4.38
2023-02-25T01:02:19.007Z,4.31
2023-02-25T01:07:16.008Z,4.30
2023-02-25T01:12:10.163Z,4.25
2023-02-25T01:17:03.514Z,4.30
2023-02-25T01:22:04.488Z,4.19
2023-02-25T01:27:01.414Z,4.13
2023-02-25T01:31:56.400Z,4.17
2023-02-25T01:36:49.333Z,4.16
2023-02-25T01:41:50.256Z,4.29
2023-02-25T01:46:42.021Z,4.30
2023-02-25T01:51:42.421Z,4.26
2023-02-25T01:56:33.554Z,4.32
2023-02-25T02:01:33.500Z,4.44
2023-02-25T02:06:28.757Z,4.51
2023-02-25T02:11:21.282Z,4.43
2023-02-25T02:16:21.139Z,4.50
2023-02-25T02:21:24.413Z,4.47
2023-02-25T02:26:31.164Z,4.48
2023-02-25T02:31:36.569Z,4.36
2023-02-25T02:36:35.410Z,4.42
2023-02-25T02:41:31.906Z,4.17
2023-02-25T02:46:26.468Z,4.43
2023-02-25T02:51:23.811Z,4.44
2023-02-25T02:56:16.955Z,4.49
2023-02-25T03:01:10.367Z,4.28
2023-02-25T03:06:01.347Z,4.36
2023-02-25T03:10:57.225Z,4.29
2023-02-25T03:15:49.817Z,4.33
2023-02-25T03:20:48.147Z,4.32
2023-02-25T03:25:47.875Z,4.21
2023-02-25T03:30:47.183Z,4.33
2023-02-25T03:35:41.284Z,4.17
2023-02-25T03:40:36.154Z,4.15
2023-02-25T03:45:27.519Z,4.15
2023-02-25T03:50:23.999Z,4.12
2023-02-25T03:55:20.039Z,4.03
2023-02-25T04:00:16.932Z,3.93
2023-02-25T04:05:13.796Z,3.94
2023-02-25T04:10:20.735Z,3.95
2023-02-25T04:15:20.550Z,3.94
2023-02-25T04:20:15.658Z,3.95
2023-02-25T04:25:12.374Z,3.89
2023-02-25T04:30:02.834Z,3.96
2023-02-25T04:34:58.350Z,4.03
2023-02-25T04:39:53.063Z,4.00
2023-02-25T04:44:45.718Z,4.01
2023-02-25T04:49:45.535Z,4.05
2023-02-25T04:54:42.482Z,4.13
2023-02-25T04:59:33.528Z,4.06
2023-02-25T05:04:27.727Z,4.13
2023-02-25T05:09:21.601Z,3.92
2023-02-25T05:14:17.455Z,4.12
2023-02-25T05:19:11.277Z,4.12
2023-02-25T05:24:04.525Z,4.12
2023-02-25T05:28:56.718Z,4.04
2023-02-25T05:34:01.085Z,4.12
2023-02-25T05:39:01.103Z,4.10
2023-02-25T05:43:57.294Z,4.00
2023-02-25T05:48:55.027Z,3.98
2023-02-25T05:53:49.297Z,3.88
2023-02-25T05:58:45.248Z,3.92
2023-02-25T06:03:37.240Z,3.93
2023-02-25T06:08:38.621Z,3.87
2023-02-25T06:13:33.311Z,3.83
2023-02-25T06:18:27.769Z,3.85
2023-02-25T06:23:22.759Z,3.80
2023-02-25T06:28:16.074Z,3.76
2023-02-25T06:33:05.651Z,3.71
2023-02-25T06:37:57.918Z,3.73
2023-02-25T06:42:50.529Z,3.82
2023-02-25T06:47:47.503Z,3.83
2023-02-25T06:52:47.866Z,3.92
2023-02-25T06:57:38.381Z,3.99
2023-02-25T07:02:30.484Z,3.86
2023-02-25T07:07:29.848Z,3.80
2023-02-25T07:12:22.239Z,3.89
2023-02-25T07:17:18.386Z,3.93
2023-02-25T07:22:09.959Z,3.96
2023-02-25T07:27:04.449Z,3.98
2023-02-25T07:31:56.671Z,3.90
2023-02-25T07:36:48.247Z,3.99
2023-02-25T07:41:41.507Z,4.08
2023-02-25T07:46:41.645Z,4.13
2023-02-25T07:51:34.316Z,4.35
2023-02-25T07:56:27.842Z,4.35
2023-02-25T08:01:27.608Z,4.36
2023-02-25T08:06:22.115Z,4.29
2023-02-25T08:11:13.178Z,4.27
2023-02-25T08:16:03.390Z,4.32
2023-02-25T08:20:56.827Z,4.39
2023-02-25T08:26:00.772Z,4.53
2023-02-25T08:30:51.781Z,4.70
2023-02-25T08:35:53.179Z,4.84
2023-02-25T08:40:46.642Z,4.86
2023-02-25T08:45:42.644Z,5.04
2023-02-25T08:50:42.302Z,5.17
2023-02-25T08:55:38.822Z,5.18
2023-02-25T09:00:31.324Z,5.14
2023-02-25T09:05:35.571Z,5.35
2023-02-25T09:10:48.096Z,5.43
2023-02-25T09:15:43.536Z,5.60
2023-02-25T09:20:35.987Z,5.63
2023-02-25T09:25:32.216Z,5.89
2023-02-25T09:30:26.231Z,5.94
2023-02-25T09:35:25.505Z,5.94
2023-02-25T09:40:28.127Z,5.19
2023-02-25T09:45:23.034Z,5.09
2023-02-25T09:50:23.837Z,4.81
2023-02-25T09:55:28.407Z,5.08
2023-02-25T10:00:25.351Z,5.59
2023-02-25T10:05:26.508Z,5.65
2023-02-25T10:10:30.776Z,5.73
2023-02-25T10:15:37.095Z,5.76
2023-02-25T10:20:39.511Z,5.82
2023-02-25T10:25:35.015Z,6.25
2023-02-25T10:30:34.037Z,7.11
2023-02-25T10:35:31.141Z,7.85
2023-02-25T10:40:25.378Z,7.92
2023-02-25T10:45:23.590Z,8.01
2023-02-25T10:50:44.497Z,7.44
2023-02-25T10:55:59.018Z,6.75
2023-02-25T11:01:02.662Z,6.51
2023-02-25T11:06:12.046Z,6.66
2023-02-25T11:11:27.082Z,6.85
2023-02-25T11:16:21.351Z,6.91
2023-02-25T11:21:16.498Z,6.81
2023-02-25T11:26:16.443Z,6.86
2023-02-25T11:31:25.775Z,7.18
2023-02-25T11:36:27.633Z,7.20
2023-02-25T11:41:27.637Z,7.09
2023-02-25T11:46:34.853Z,6.85
2023-02-25T11:51:41.982Z,6.95
2023-02-25T11:56:51.904Z,7.19
2023-02-25T12:02:01.885Z,7.19
2023-02-25T12:07:29.480Z,6.74
2023-02-25T12:12:38.387Z,6.71
2023-02-25T12:17:42.622Z,6.27
2023-02-25T12:22:46.968Z,5.99
2023-02-25T12:27:51.602Z,5.91
2023-02-25T12:32:55.445Z,5.77
2023-02-25T12:37:59.368Z,5.66
2023-02-25T12:42:58.450Z,5.87
2023-02-25T12:47:57.899Z,6.19
2023-02-25T12:52:55.848Z,6.36
2023-02-25T12:57:58.680Z,6.75
2023-02-25T13:03:08.987Z,6.83
2023-02-25T13:08:28.302Z,6.78
2023-02-25T13:13:35.106Z,6.75
2023-02-25T13:18:31.614Z,6.81
2023-02-25T13:23:34.031Z,6.91
2023-02-25T13:28:33.030Z,7.08
2023-02-25T13:33:27.146Z,6.83
2023-02-25T13:38:31.016Z,6.64
2023-02-25T13:43:38.516Z,6.82
2023-02-25T13:48:41.895Z,6.79
2023-02-25T13:53:51.106Z,6.45
2023-02-25T13:58:54.664Z,6.62
2023-02-25T14:03:59.091Z,6.73
2023-02-25T14:09:07.148Z,6.44
2023-02-25T14:14:09.599Z,6.49
2023-02-25T14:19:08.197Z,6.47
2023-02-25T14:24:06.949Z,6.43
2023-02-25T14:29:06.757Z,6.45
2023-02-25T14:34:14.023Z,6.82
2023-02-25T14:39:20.599Z,6.42
2023-02-25T14:44:15.358Z,6.61
2023-02-25T14:49:10.183Z,6.63
2023-02-25T14:54:08.826Z,6.60
2023-02-25T14:59:28.003Z,6.57
2023-02-25T15:04:29.109Z,6.62
2023-02-25T15:09:27.946Z,6.38
2023-02-25T15:14:35.315Z,6.01
2023-02-25T15:19:43.297Z,5.89
2023-02-25T15:24:40.384Z,5.94
2023-02-25T15:29:46.825Z,5.86
2023-02-25T15:34:40.121Z,6.25
2023-02-25T15:39:44.706Z,5.76
2023-02-25T15:44:41.424Z,5.99
2023-02-25T15:49:33.387Z,5.74
2023-02-25T15:54:37.943Z,5.67
2023-02-25T15:59:45.203Z,5.69
2023-02-25T16:04:58.669Z,5.60
2023-02-25T16:09:53.878Z,5.72
2023-02-25T16:14:44.209Z,5.41
2023-02-25T16:19:40.257Z,4.86
2023-02-25T16:24:32.799Z,4.78
2023-02-25T16:29:40.080Z,4.73
2023-02-25T16:34:36.432Z,4.43
2023-02-25T16:39:31.548Z,4.44
2023-02-25T16:44:29.637Z,4.44
2023-02-25T16:49:36.984Z,4.32
2023-02-25T16:54:34.661Z,4.22
2023-02-25T16:59:34.109Z,4.12
2023-02-25T17:04:39.795Z,3.98
2023-02-25T17:09:33.104Z,3.92
2023-02-25T17:14:46.678Z,3.83
2023-02-25T17:19:45.173Z,3.68
2023-02-25T17:24:36.934Z,3.68
2023-02-25T17:29:41.525Z,3.57
2023-02-25T17:34:35.422Z,3.45
2023-02-25T17:39:34.814Z,3.42
2023-02-25T17:44:49.267Z,3.29
2023-02-25T17:49:40.774Z,3.14
2023-02-25T17:54:37.201Z,3.15
2023-02-25T17:59:48.727Z,3.13
2023-02-25T18:04:54.007Z,3.04
2023-02-25T18:09:50.329Z,2.94
2023-02-25T18:14:48.270Z,2.89
2023-02-25T18:19:41.660Z,2.85
2023-02-25T18:24:38.296Z,2.68
2023-02-25T18:29:35.035Z,2.65
2023-02-25T18:34:37.022Z,2.66
2023-02-25T18:39:31.706Z,2.57
2023-02-25T18:44:26.512Z,2.52
2023-02-25T18:49:25.244Z,2.43
2023-02-25T18:54:38.725Z,2.33
2023-02-25T18:59:30.600Z,2.28
2023-02-25T19:04:33.920Z,2.32
2023-02-25T19:09:30.584Z,2.22
2023-02-25T19:14:23.207Z,2.18
2023-02-25T19:19:17.818Z,2.09
2023-02-25T19:24:14.365Z,2.02
2023-02-25T19:29:08.083Z,1.99
2023-02-25T19:34:04.258Z,1.93
2023-02-25T19:39:02.284Z,1.80
2023-02-25T19:43:57.642Z,1.83
2023-02-25T19:48:54.566Z,1.77
2023-02-25T19:53:47.583Z,1.72
2023-02-25T19:58:44.223Z,1.67
2023-02-25T20:03:40.592Z,1.53
2023-02-25T20:08:53.199Z,1.31
2023-02-25T20:13:48.227Z,1.07
2023-02-25T20:19:07.913Z,1.39
2023-02-25T20:24:03.190Z,1.30
2023-02-25T20:28:56.894Z,1.25
2023-02-25T20:33:59.633Z,1.30
2023-02-25T20:39:13.140Z,1.37
2023-02-25T20:44:14.031Z,1.36
2023-02-25T20:49:08.299Z,1.32
2023-02-25T20:54:12.176Z,1.29
2023-02-25T20:59:08.369Z,1.13
2023-02-25T21:04:16.987Z,1.29
2023-02-25T21:09:19.763Z,1.20
2023-02-25T21:14:12.504Z,1.20
2023-02-25T21:19:04.721Z,1.27
2023-02-25T21:24:00.580Z,1.22
2023-02-25T21:28:54.568Z,1.18
2023-02-25T21:33:46.991Z,1.24
2023-02-25T21:38:41.099Z,1.16
2023-02-25T21:43:37.187Z,1.09
2023-02-25T21:48:34.999Z,1.15
2023-02-25T21:53:30.273Z,0.98
2023-02-25T21:58:27.933Z,1.08
2023-02-25T22:03:20.504Z,0.95
2023-02-25T22:08:11.245Z,0.86
2023-02-25T22:13:04.480Z,0.99
2023-02-25T22:17:59.685Z,0.91
2023-02-25T22:22:59.511Z,0.91
2023-02-25T22:27:53.098Z,0.90
2023-02-25T22:32:50.862Z,0.75
2023-02-25T22:37:42.370Z,0.89
2023-02-25T22:42:40.049Z,0.81
2023-02-25T22:47:33.199Z,0.78
2023-02-25T22:52:23.202Z,0.75
2023-02-25T22:57:13.502Z,0.75
2023-02-25T23:02:10.538Z,0.75
2023-02-25T23:07:13.763Z,0.72
2023-02-25T23:12:06.204Z,0.64
2023-02-25T23:17:09.680Z,0.51
2023-02-25T23:22:04.605Z,0.61
2023-02-25T23:27:01.818Z,0.59
2023-02-25T23:31:52.761Z,0.56
2023-02-25T23:36:47.046Z,0.56
2023-02-25T23:41:41.813Z,0.52
2023-02-25T23:46:37.922Z,0.45
2023-02-25T23:51:39.251Z,0.54
2023-02-25T23:56:37.498Z,0.52
